Time;durP1;ratioP1;P1;durP2;ratioP2;P2;SDS_P1;SDS_P2;PMS_P1;PMS_P2;Temp;Humidity;BMP_temperature;BMP_pressure;BME280_temperature;BME280_humidity;BME280_pressure;Samples;Min_cycle;Max_cycle;Signal;HPM_P1;HPM_P2
2023/12/26 00:01:36;;;;;;;1.17;0.87;;;;;;;-142.06;100.00;64312.41;5035575;28;20197;-82
2023/12/26 00:04:03;;;;;;;1.20;1.10;;;;;;;-142.06;100.00;64312.41;5020937;28;20201;-82
2023/12/26 00:06:30;;;;;;;1.37;0.80;;;;;;;-142.06;100.00;64312.41;5012045;28;20198;-81
2023/12/26 00:08:57;;;;;;;1.10;0.90;;;;;;;-142.06;100.00;64312.41;5050065;28;20209;-82
2023/12/26 00:11:25;;;;;;;1.83;0.70;;;;;;;-142.06;100.00;64312.41;5038040;28;20244;-81
2023/12/26 00:13:51;;;;;;;1.10;0.90;;;;;;;-142.06;100.00;64312.41;5027087;28;20210;-81
2023/12/26 00:16:18;;;;;;;1.37;0.93;;;;;;;-142.06;100.00;64312.41;5030346;28;20198;-81
2023/12/26 00:18:45;;;;;;;1.50;0.70;;;;;;;-142.06;100.00;64312.41;5032822;28;20201;-82
2023/12/26 00:21:12;;;;;;;0.90;0.83;;;;;;;-142.06;100.00;64312.41;5029608;28;20280;-81
2023/12/26 00:23:39;;;;;;;1.37;0.90;;;;;;;-142.06;100.00;64312.41;5036039;28;20279;-81
2023/12/26 00:26:06;;;;;;;0.83;0.80;;;;;;;-142.06;100.00;64312.41;5052038;28;20249;-82
2023/12/26 00:28:33;;;;;;;1.10;1.00;;;;;;;-142.06;100.00;64312.41;5034798;28;20248;-81
2023/12/26 00:30:59;;;;;;;1.17;1.00;;;;;;;-142.06;100.00;64312.41;5016614;28;20252;-81
2023/12/26 00:33:26;;;;;;;1.67;1.30;;;;;;;-142.06;100.00;64312.41;5035871;28;20296;-82
2023/12/26 00:35:58;;;;;;;2.30;1.43;;;;;;;-142.06;100.00;64312.41;5036165;28;20992;-82
2023/12/26 00:38:25;;;;;;;1.47;1.30;;;;;;;-142.06;100.00;64312.41;5034771;28;20219;-83
2023/12/26 00:40:52;;;;;;;1.50;1.30;;;;;;;-142.06;100.00;64312.41;5052254;28;20201;-81
2023/12/26 00:43:19;;;;;;;1.53;1.33;;;;;;;-142.06;100.00;64312.41;5035488;28;20601;-81
2023/12/26 00:45:46;;;;;;;1.73;1.23;;;;;;;-142.06;100.00;64312.41;5035524;28;20284;-81
2023/12/26 00:48:14;;;;;;;1.97;1.20;;;;;;;-142.06;100.00;64312.41;5018570;28;20223;-81
2023/12/26 00:50:42;;;;;;;2.47;1.33;;;;;;;-142.06;100.00;64312.41;5030013;28;20197;-81
2023/12/26 00:53:09;;;;;;;1.53;1.17;;;;;;;-142.06;100.00;64312.41;5035565;28;20210;-82
2023/12/26 00:55:36;;;;;;;1.53;1.30;;;;;;;-142.06;100.00;64312.41;5019727;28;20244;-81
2023/12/26 00:58:03;;;;;;;2.03;1.40;;;;;;;-142.06;100.00;64312.41;5052634;28;20197;-81
2023/12/26 01:00:30;;;;;;;1.80;1.33;;;;;;;-142.06;100.00;64312.41;5030973;28;20210;-82
2023/12/26 01:02:57;;;;;;;1.50;1.33;;;;;;;-142.06;100.00;64312.41;5050658;28;20274;-83
2023/12/26 01:05:24;;;;;;;2.13;1.80;;;;;;;-142.06;100.00;64312.41;5035791;28;20210;-81
2023/12/26 01:07:51;;;;;;;1.83;1.50;;;;;;;-142.06;100.00;64312.41;5029749;28;20209;-81
2023/12/26 01:10:18;;;;;;;1.60;1.50;;;;;;;-142.06;100.00;64312.41;5035116;28;20209;-81
2023/12/26 01:12:45;;;;;;;3.40;1.70;;;;;;;-142.06;100.00;64312.41;5034775;28;21000;-81
2023/12/26 01:15:12;;;;;;;1.87;1.40;;;;;;;-142.06;100.00;64312.41;5033820;28;20198;-80
2023/12/26 01:17:39;;;;;;;2.13;1.60;;;;;;;-142.06;100.00;64312.41;5051018;28;20210;-81
2023/12/26 01:20:06;;;;;;;2.23;1.40;;;;;;;-142.06;100.00;64312.41;5037751;28;20191;-81
2023/12/26 01:22:33;;;;;;;2.10;1.67;;;;;;;-142.06;100.00;64312.41;5050884;28;20220;-81
2023/12/26 01:25:00;;;;;;;1.90;1.57;;;;;;;-142.06;100.00;64312.41;5032255;28;20190;-81
2023/12/26 01:27:27;;;;;;;2.00;1.60;;;;;;;-142.06;100.00;64312.41;5050474;28;20275;-81
2023/12/26 01:29:54;;;;;;;2.10;1.90;;;;;;;-142.06;100.00;64312.41;5036061;28;20270;-81
2023/12/26 01:32:21;;;;;;;2.03;1.70;;;;;;;-142.06;100.00;64312.41;5038130;28;20194;-81
2023/12/26 01:34:49;;;;;;;2.00;1.60;;;;;;;-142.06;100.00;64312.41;5035075;28;20275;-81
2023/12/26 01:37:16;;;;;;;1.90;1.63;;;;;;;-142.06;100.00;64312.41;5034548;28;20237;-85
2023/12/26 01:39:43;;;;;;;1.80;1.30;;;;;;;-142.06;100.00;64312.41;5051190;28;20205;-81
2023/12/26 01:42:10;;;;;;;1.73;1.63;;;;;;;-142.06;100.00;64312.41;5032828;28;20196;-81
2023/12/26 01:44:37;;;;;;;1.40;1.30;;;;;;;-142.06;100.00;64312.41;5029757;28;20718;-80
2023/12/26 01:47:04;;;;;;;2.13;1.33;;;;;;;-142.06;100.00;64312.41;5050644;28;20288;-81
2023/12/26 01:49:31;;;;;;;1.57;1.33;;;;;;;-142.06;100.00;64312.41;5034559;28;20197;-82
2023/12/26 01:51:58;;;;;;;1.50;1.40;;;;;;;-142.06;100.00;64312.41;5034299;28;20193;-81
2023/12/26 01:54:29;;;;;;;1.73;1.37;;;;;;;-142.06;100.00;64312.41;5033839;28;20696;-84
2023/12/26 01:56:56;;;;;;;3.77;1.40;;;;;;;-142.06;100.00;64312.41;5034184;28;20251;-81
2023/12/26 01:59:23;;;;;;;1.20;1.10;;;;;;;-142.06;100.00;64312.41;5033036;28;20225;-81
2023/12/26 02:01:50;;;;;;;1.47;1.13;;;;;;;-142.06;100.00;64312.41;5052055;28;20197;-81
2023/12/26 02:04:17;;;;;;;1.10;1.00;;;;;;;-142.06;100.00;64312.41;5034082;28;20221;-80
2023/12/26 02:06:44;;;;;;;1.10;1.00;;;;;;;-142.06;100.00;64312.41;5047637;28;20737;-81
2023/12/26 02:09:11;;;;;;;1.10;1.00;;;;;;;-142.06;100.00;64312.41;5031419;28;20197;-81
2023/12/26 02:11:38;;;;;;;2.50;1.10;;;;;;;-142.06;100.00;64312.41;5031174;28;20190;-81
2023/12/26 02:14:05;;;;;;;1.90;1.20;;;;;;;-142.06;100.00;64312.41;5017112;28;20201;-81
2023/12/26 02:16:35;;;;;;;1.50;1.00;;;;;;;-142.06;100.00;64312.41;5034142;28;20197;-80
2023/12/26 02:19:03;;;;;;;1.30;1.20;;;;;;;-142.06;100.00;64312.41;5017825;28;20206;-82
2023/12/26 02:21:32;;;;;;;1.03;1.00;;;;;;;-142.06;100.00;64312.41;5017837;28;20288;-81
2023/12/26 02:23:59;;;;;;;1.20;1.00;;;;;;;-142.06;100.00;64312.41;5054512;28;20221;-80
2023/12/26 02:26:28;;;;;;;2.67;1.00;;;;;;;-142.06;100.00;64312.41;5025975;28;20610;-81
2023/12/26 02:28:56;;;;;;;1.60;1.30;;;;;;;-142.06;100.00;64312.41;5050321;28;20200;-80
2023/12/26 02:31:24;;;;;;;2.00;1.47;;;;;;;-142.06;100.00;64312.41;5017919;28;20185;-80
2023/12/26 02:33:51;;;;;;;2.90;1.30;;;;;;;-142.06;100.00;64312.41;5033904;28;20189;-79
2023/12/26 02:36:18;;;;;;;1.30;1.00;;;;;;;-142.06;100.00;64312.41;5017644;28;20239;-81
2023/12/26 02:38:46;;;;;;;1.40;1.30;;;;;;;-142.06;100.00;64312.41;5049967;28;20193;-79
2023/12/26 02:41:13;;;;;;;2.07;1.30;;;;;;;-142.06;100.00;64312.41;5050463;28;20196;-79
2023/12/26 02:43:39;;;;;;;1.40;1.30;;;;;;;-142.06;100.00;64312.41;5015164;28;20252;-79
2023/12/26 02:46:07;;;;;;;1.30;1.20;;;;;;;-142.06;100.00;64312.41;5029665;28;20189;-80
2023/12/26 02:48:35;;;;;;;1.40;1.20;;;;;;;-142.06;100.00;64312.41;5050167;28;20206;-79
2023/12/26 02:51:03;;;;;;;1.83;1.30;;;;;;;-142.06;100.00;64312.41;5020055;28;20654;-79
2023/12/26 02:53:30;;;;;;;1.77;1.20;;;;;;;-142.06;100.00;64312.41;5033379;28;20669;-80
2023/12/26 02:55:57;;;;;;;1.80;1.10;;;;;;;-142.06;100.00;64312.41;5034833;28;20212;-82
2023/12/26 02:58:23;;;;;;;1.70;1.20;;;;;;;-142.06;100.00;64312.41;5017334;28;20201;-80
2023/12/26 03:00:50;;;;;;;2.10;1.30;;;;;;;-142.06;100.00;64312.41;5036277;28;20190;-80
2023/12/26 03:03:18;;;;;;;1.63;1.30;;;;;;;-142.06;100.00;64312.41;5033454;28;20244;-80
2023/12/26 03:05:45;;;;;;;2.03;1.50;;;;;;;-142.06;100.00;64312.41;5033572;28;20217;-80
2023/12/26 03:08:12;;;;;;;1.57;1.17;;;;;;;-142.06;100.00;64312.41;5010666;28;20204;-79
2023/12/26 03:10:38;;;;;;;1.57;1.47;;;;;;;-142.06;100.00;64312.41;5017261;28;20194;-78
2023/12/26 03:13:05;;;;;;;1.30;1.20;;;;;;;-142.06;100.00;64312.41;5021119;28;20202;-81
2023/12/26 03:15:32;;;;;;;2.47;1.60;;;;;;;-142.06;100.00;64312.41;5034556;28;20697;-80
2023/12/26 03:17:59;;;;;;;1.60;1.47;;;;;;;-142.06;100.00;64312.41;5035269;28;20194;-79
2023/12/26 03:20:27;;;;;;;2.10;1.30;;;;;;;-142.06;100.00;64312.41;5048187;28;20207;-81
2023/12/26 03:22:54;;;;;;;1.50;1.30;;;;;;;-142.06;100.00;64312.41;5031979;28;20214;-79
2023/12/26 03:25:21;;;;;;;1.80;1.40;;;;;;;-142.06;100.00;64312.41;5037450;28;20205;-79
2023/12/26 03:27:49;;;;;;;2.20;1.33;;;;;;;-142.06;100.00;64312.41;5020348;28;20293;-79
2023/12/26 03:30:16;;;;;;;1.67;1.57;;;;;;;-142.06;100.00;64312.41;5037275;28;20205;-79
2023/12/26 03:32:44;;;;;;;1.40;1.30;;;;;;;-142.06;100.00;64312.41;5054434;28;20193;-79
2023/12/26 03:35:11;;;;;;;1.70;1.60;;;;;;;-142.06;100.00;64312.41;5048261;28;20206;-81
2023/12/26 03:37:38;;;;;;;2.93;1.60;;;;;;;-142.06;100.00;64312.41;5036795;28;20225;-80
2023/12/26 03:40:06;;;;;;;1.80;1.43;;;;;;;-142.06;100.00;64312.41;5036757;28;20190;-79
2023/12/26 03:42:33;;;;;;;1.50;1.40;;;;;;;-142.06;100.00;64312.41;5037039;28;20292;-80
2023/12/26 03:45:00;;;;;;;1.50;1.40;;;;;;;-142.06;100.00;64312.41;5036801;28;20217;-80
2023/12/26 03:47:27;;;;;;;1.50;1.40;;;;;;;-142.06;100.00;64312.41;5020493;28;20201;-82
2023/12/26 03:49:54;;;;;;;1.53;1.43;;;;;;;-142.06;100.00;64312.41;5035159;28;20664;-79
2023/12/26 03:52:21;;;;;;;1.63;1.50;;;;;;;-142.06;100.00;64312.41;5037052;28;20207;-80
2023/12/26 03:54:48;;;;;;;2.47;1.70;;;;;;;-142.06;100.00;64312.41;5041997;28;20287;-81
2023/12/26 03:57:15;;;;;;;1.90;1.70;;;;;;;-142.06;100.00;64312.41;5053336;28;20197;-80
2023/12/26 03:59:42;;;;;;;2.03;1.80;;;;;;;-142.06;100.00;64312.41;5036089;28;20228;-80
2023/12/26 04:02:09;;;;;;;1.70;1.60;;;;;;;-142.06;100.00;64312.41;5051544;28;20272;-80
2023/12/26 04:04:36;;;;;;;2.17;1.70;;;;;;;-142.06;100.00;64312.41;5051663;28;20217;-81
2023/12/26 04:07:03;;;;;;;1.90;1.60;;;;;;;-142.06;100.00;64312.41;5037978;28;20247;-80
2023/12/26 04:09:30;;;;;;;1.80;1.70;;;;;;;-142.06;100.00;64312.41;5036290;28;20201;-80
2023/12/26 04:11:57;;;;;;;2.33;1.70;;;;;;;-142.06;100.00;64312.41;5020215;28;20201;-79
2023/12/26 04:14:24;;;;;;;2.10;1.77;;;;;;;-142.06;100.00;64312.41;5036292;28;20282;-81
2023/12/26 04:16:51;;;;;;;1.83;1.63;;;;;;;-142.06;100.00;64312.41;5035125;28;20312;-80
2023/12/26 04:19:18;;;;;;;2.00;1.63;;;;;;;-142.06;100.00;64312.41;5036512;28;20379;-80
2023/12/26 04:21:45;;;;;;;1.93;1.70;;;;;;;-142.06;100.00;64312.41;5036402;28;20679;-80
2023/12/26 04:24:12;;;;;;;3.30;2.40;;;;;;;-142.06;100.00;64312.41;5035388;28;20681;-81
2023/12/26 04:26:39;;;;;;;2.93;2.67;;;;;;;-142.06;100.00;64312.41;5020365;28;20309;-80
2023/12/26 04:29:06;;;;;;;3.10;2.80;;;;;;;-142.06;100.00;64312.41;5032307;28;20202;-81
2023/12/26 04:31:33;;;;;;;3.60;2.90;;;;;;;-142.06;100.00;64312.41;5033872;28;20194;-80
2023/12/26 04:34:00;;;;;;;4.70;3.57;;;;;;;-142.06;100.00;64312.41;5037391;28;20224;-80
2023/12/26 04:36:27;;;;;;;3.57;3.00;;;;;;;-142.06;100.00;64312.41;5028178;28;20331;-82
2023/12/26 04:38:54;;;;;;;4.57;3.40;;;;;;;-142.06;100.00;64312.41;5051501;28;20680;-82
2023/12/26 04:41:21;;;;;;;4.10;3.70;;;;;;;-142.06;100.00;64312.41;5035842;28;20267;-80
2023/12/26 04:43:47;;;;;;;4.43;3.60;;;;;;;-142.06;100.00;64312.41;5052251;28;20217;-80
2023/12/26 04:46:21;;;;;;;3.97;3.37;;;;;;;-142.06;100.00;64312.41;5052493;28;20236;-80
2023/12/26 04:48:48;;;;;;;3.93;3.33;;;;;;;-142.06;100.00;64312.41;5036353;28;20186;-81
2023/12/26 04:51:16;;;;;;;4.43;3.23;;;;;;;-142.06;100.00;64312.41;5019851;28;20254;-80
2023/12/26 04:53:45;;;;;;;3.50;3.20;;;;;;;-142.06;100.00;64312.41;5052368;28;20213;-80
2023/12/26 04:56:19;;;;;;;3.63;3.17;;;;;;;-142.06;100.00;64312.41;5060312;28;20289;-80
2023/12/26 04:58:50;;;;;;;3.40;3.10;;;;;;;-142.06;100.00;64312.41;5028243;28;20202;-81
2023/12/26 05:01:18;;;;;;;4.40;3.60;;;;;;;-142.06;100.00;64312.41;5044300;28;20291;-79
2023/12/26 05:03:46;;;;;;;3.93;3.53;;;;;;;-142.06;100.00;64312.41;5035513;28;20225;-80
2023/12/26 05:06:18;;;;;;;4.00;3.53;;;;;;;-142.06;100.00;64312.41;5032845;28;20228;-80
2023/12/26 05:08:45;;;;;;;4.97;3.80;;;;;;;-142.06;100.00;64312.41;5047628;28;20225;-81
2023/12/26 05:11:22;;;;;;;4.70;3.90;;;;;;;-142.06;100.00;64312.41;5040853;28;20322;-80
2023/12/26 05:13:50;;;;;;;4.13;3.50;;;;;;;-142.06;100.00;64312.41;5047635;28;20196;-79
2023/12/26 05:16:18;;;;;;;4.13;3.57;;;;;;;-142.06;100.00;64312.41;5044323;28;20274;-79
2023/12/26 05:18:45;;;;;;;5.97;3.63;;;;;;;-142.06;100.00;64312.41;5035434;28;20208;-80
2023/12/26 05:21:19;;;;;;;4.00;3.60;;;;;;;-142.06;100.00;64312.41;5039316;28;20194;-80
2023/12/26 05:23:47;;;;;;;4.57;3.47;;;;;;;-142.06;100.00;64312.41;5043602;28;20228;-80
2023/12/26 05:26:15;;;;;;;4.17;3.33;;;;;;;-142.06;100.00;64312.41;5026924;28;20225;-81
2023/12/26 05:28:43;;;;;;;6.17;3.93;;;;;;;-142.06;100.00;64312.41;5036087;28;20231;-81
2023/12/26 05:31:10;;;;;;;3.90;3.43;;;;;;;-142.06;100.00;64312.41;5036181;28;20193;-80
2023/12/26 05:33:37;;;;;;;4.90;3.77;;;;;;;-142.06;100.00;64312.41;5057231;28;20303;-81
2023/12/26 05:36:06;;;;;;;4.33;3.50;;;;;;;-142.06;100.00;64312.41;5033540;28;20392;-81
2023/12/26 05:38:35;;;;;;;5.57;3.63;;;;;;;-142.06;100.00;64312.41;5051436;28;20206;-80
2023/12/26 05:41:05;;;;;;;4.27;3.30;;;;;;;-142.06;100.00;64312.41;5035085;28;20197;-80
2023/12/26 05:43:32;;;;;;;5.73;3.10;;;;;;;-142.06;100.00;64312.41;5034990;28;20245;-80
2023/12/26 05:46:02;;;;;;;5.27;3.17;;;;;;;-142.06;100.00;64312.41;5028413;28;20217;-80
2023/12/26 05:48:30;;;;;;;4.83;3.07;;;;;;;-142.06;100.00;64312.41;5018856;28;20664;-83
2023/12/26 05:50:58;;;;;;;3.77;2.70;;;;;;;-142.06;100.00;64312.41;5034806;28;20736;-81
2023/12/26 05:53:29;;;;;;;2.93;2.03;;;;;;;-142.06;100.00;64312.41;5034659;28;20400;-80
2023/12/26 05:55:57;;;;;;;2.97;2.60;;;;;;;-142.06;100.00;64312.41;5036829;28;20212;-80
2023/12/26 05:58:25;;;;;;;2.30;2.10;;;;;;;-142.06;100.00;64312.41;5051286;28;20193;-80
2023/12/26 06:00:52;;;;;;;3.77;2.40;;;;;;;-142.06;100.00;64312.41;5019830;28;20234;-81
2023/12/26 06:03:19;;;;;;;2.60;2.07;;;;;;;-142.06;100.00;64312.41;5034347;28;20213;-80
2023/12/26 06:05:47;;;;;;;3.00;2.20;;;;;;;-142.06;100.00;64312.41;5031837;28;20288;-80
2023/12/26 06:08:15;;;;;;;2.13;1.90;;;;;;;-142.06;100.00;64312.41;5033183;28;20255;-80
2023/12/26 06:10:41;;;;;;;2.00;1.80;;;;;;;-142.06;100.00;64312.41;5032652;28;20197;-80
2023/12/26 06:13:09;;;;;;;2.73;2.00;;;;;;;-142.06;100.00;64312.41;5020788;28;20201;-83
2023/12/26 06:15:36;;;;;;;3.13;1.97;;;;;;;-142.06;100.00;64312.41;5033797;28;20229;-84
2023/12/26 06:18:03;;;;;;;2.20;1.80;;;;;;;-142.06;100.00;64312.41;5037228;28;20196;-81
2023/12/26 06:20:30;;;;;;;2.87;1.80;;;;;;;-142.06;100.00;64312.41;5033734;28;20296;-80
2023/12/26 06:22:57;;;;;;;3.37;1.73;;;;;;;-142.06;100.00;64312.41;5034071;28;20247;-81
2023/12/26 06:25:24;;;;;;;2.90;1.77;;;;;;;-142.06;100.00;64312.41;5050278;28;20235;-81
2023/12/26 06:27:51;;;;;;;1.70;1.60;;;;;;;-142.06;100.00;64312.41;5033711;28;20209;-79
2023/12/26 06:30:18;;;;;;;2.10;1.80;;;;;;;-142.06;100.00;64312.41;5016909;28;20205;-82
2023/12/26 06:32:45;;;;;;;1.67;1.57;;;;;;;-142.06;100.00;64312.41;5050269;28;20208;-80
2023/12/26 06:35:12;;;;;;;1.90;1.50;;;;;;;-142.06;100.00;64312.41;5033438;28;20194;-81
2023/12/26 06:37:40;;;;;;;2.20;1.80;;;;;;;-142.06;100.00;64312.41;5032602;28;20266;-80
2023/12/26 06:40:07;;;;;;;1.90;1.57;;;;;;;-142.06;100.00;64312.41;5050088;28;20189;-79
2023/12/26 06:42:34;;;;;;;2.17;1.70;;;;;;;-142.06;100.00;64312.41;5033457;28;20264;-79
2023/12/26 06:45:01;;;;;;;3.33;1.93;;;;;;;-142.06;100.00;64312.41;5016782;28;20278;-80
2023/12/26 06:47:28;;;;;;;2.13;1.90;;;;;;;-142.06;100.00;64312.41;5051074;28;20209;-84
2023/12/26 06:49:55;;;;;;;2.70;2.10;;;;;;;-142.06;100.00;64312.41;5036393;28;20275;-80
2023/12/26 06:52:22;;;;;;;3.17;1.90;;;;;;;-142.06;100.00;64312.41;5037446;28;20216;-79
2023/12/26 06:54:49;;;;;;;2.17;1.97;;;;;;;-142.06;100.00;64312.41;5050135;28;20197;-79
2023/12/26 06:57:15;;;;;;;2.10;1.90;;;;;;;-142.06;100.00;64312.41;5037409;28;20233;-79
2023/12/26 06:59:46;;;;;;;3.70;2.40;;;;;;;-142.06;100.00;64312.41;5036349;28;20200;-79
2023/12/26 07:02:13;;;;;;;3.63;3.33;;;;;;;-142.06;100.00;64312.41;5037217;28;20203;-79
2023/12/26 07:04:43;;;;;;;4.00;3.03;;;;;;;-142.06;100.00;64312.41;5039933;28;20312;-80
2023/12/26 07:07:10;;;;;;;2.27;1.77;;;;;;;-142.06;100.00;64312.41;5053807;28;20194;-79
2023/12/26 07:09:38;;;;;;;2.60;2.10;;;;;;;-142.06;100.00;64312.41;5051788;28;20200;-80
2023/12/26 07:12:05;;;;;;;2.47;1.67;;;;;;;-142.06;100.00;64312.41;5049570;28;20282;-79
2023/12/26 07:14:32;;;;;;;4.30;3.90;;;;;;;-142.06;100.00;64312.41;5034537;28;20217;-79
2023/12/26 07:16:59;;;;;;;28.40;24.43;;;;;;;-142.06;100.00;64312.41;5053510;28;20189;-79
2023/12/26 07:19:26;;;;;;;21.40;17.07;;;;;;;-142.06;100.00;64312.41;5031912;28;20205;-79
2023/12/26 07:21:53;;;;;;;12.27;9.80;;;;;;;-142.06;100.00;64312.41;5020643;28;20202;-80
2023/12/26 07:24:20;;;;;;;10.17;6.40;;;;;;;-142.06;100.00;64312.41;5054551;28;20308;-79
2023/12/26 07:26:47;;;;;;;8.47;5.50;;;;;;;-142.06;100.00;64312.41;5037978;28;20233;-80
2023/12/26 07:29:14;;;;;;;6.60;4.70;;;;;;;-142.06;100.00;64312.41;5052028;28;20228;-79
2023/12/26 07:31:41;;;;;;;3.43;2.73;;;;;;;-142.06;100.00;64312.41;5034904;28;20212;-82
2023/12/26 07:34:11;;;;;;;3.47;2.50;;;;;;;-142.06;100.00;64312.41;5053273;28;20646;-78
2023/12/26 07:36:38;;;;;;;2.30;1.97;;;;;;;-142.06;100.00;64312.41;5054370;28;20230;-79
2023/12/26 07:39:05;;;;;;;2.47;2.27;;;;;;;-142.06;100.00;64312.41;5052953;28;20197;-80
2023/12/26 07:41:32;;;;;;;4.00;2.83;;;;;;;-142.06;100.00;64312.41;5051646;28;20232;-81
2023/12/26 07:43:59;;;;;;;4.60;4.20;;;;;;;-142.06;100.00;64312.41;5052934;28;20197;-80
2023/12/26 07:46:26;;;;;;;3.07;2.40;;;;;;;-142.06;100.00;64312.41;5050607;28;20203;-80
2023/12/26 07:48:53;;;;;;;2.17;1.80;;;;;;;-142.06;100.00;64312.41;5052884;28;20204;-78
2023/12/26 07:51:20;;;;;;;2.10;1.77;;;;;;;-142.06;100.00;64312.41;5033638;28;20178;-79
2023/12/26 07:53:48;;;;;;;5.37;3.10;;;;;;;-142.06;100.00;64312.41;5046749;28;20247;-79
2023/12/26 07:56:14;;;;;;;3.50;3.20;;;;;;;-142.06;100.00;64312.41;5049524;28;20192;-78
2023/12/26 07:58:41;;;;;;;3.60;3.30;;;;;;;-142.06;100.00;64312.41;5044865;28;20200;-79
2023/12/26 08:01:08;;;;;;;4.40;3.60;;;;;;;-142.06;100.00;64312.41;5050653;28;20201;-79
2023/12/26 08:03:35;;;;;;;4.87;3.73;;;;;;;-142.06;100.00;64312.41;5046794;28;20690;-79
2023/12/26 08:06:02;;;;;;;4.93;4.00;;;;;;;-142.06;100.00;64312.41;5051165;28;20221;-83
2023/12/26 08:08:29;;;;;;;5.63;5.13;;;;;;;-142.06;100.00;64312.41;5046061;28;20213;-80
2023/12/26 08:10:56;;;;;;;4.63;4.23;;;;;;;-142.06;100.00;64312.41;5049524;28;20191;-82
2023/12/26 08:13:23;;;;;;;4.00;3.57;;;;;;;-142.06;100.00;64312.41;5047324;28;20201;-79
2023/12/26 08:15:50;;;;;;;4.43;3.50;;;;;;;-142.06;100.00;64312.41;5027958;28;20669;-80
2023/12/26 08:18:16;;;;;;;4.00;3.40;;;;;;;-142.06;100.00;64312.41;5033909;28;20190;-79
2023/12/26 08:20:43;;;;;;;3.57;3.20;;;;;;;-142.06;100.00;64312.41;5046607;28;20197;-80
2023/12/26 08:23:10;;;;;;;6.67;5.67;;;;;;;-142.06;100.00;64312.41;5035580;28;20202;-79
2023/12/26 08:25:37;;;;;;;14.97;13.27;;;;;;;-142.06;100.00;64312.41;5051413;28;20218;-79
2023/12/26 08:28:04;;;;;;;7.77;6.97;;;;;;;-142.06;100.00;64312.41;5049788;28;20271;-79
2023/12/26 08:30:32;;;;;;;7.33;6.57;;;;;;;-142.06;100.00;64312.41;5034660;28;20690;-80
2023/12/26 08:33:05;;;;;;;9.50;8.50;;;;;;;-142.06;100.00;64312.41;5034180;28;20202;-81
2023/12/26 08:35:32;;;;;;;10.20;9.20;;;;;;;-142.06;100.00;64312.41;5033419;28;20270;-81
2023/12/26 08:37:59;;;;;;;8.03;7.23;;;;;;;-142.06;100.00;64312.41;5033297;28;20193;-79
2023/12/26 08:40:26;;;;;;;13.17;11.70;;;;;;;-142.06;100.00;64312.41;5054628;28;20189;-81
2023/12/26 08:42:53;;;;;;;6.67;5.77;;;;;;;-142.06;100.00;64312.41;5052916;28;20205;-79
2023/12/26 08:45:21;;;;;;;5.90;4.50;;;;;;;-142.06;100.00;64312.41;5016897;28;20221;-80
2023/12/26 08:47:49;;;;;;;3.90;3.03;;;;;;;-142.06;100.00;64312.41;5051276;28;20201;-80
2023/12/26 08:50:16;;;;;;;3.80;3.40;;;;;;;-142.06;100.00;64312.41;5034220;28;20662;-82
2023/12/26 08:52:43;;;;;;;3.83;3.40;;;;;;;-142.06;100.00;64312.41;5050254;28;20182;-79
2023/12/26 08:55:10;;;;;;;4.00;3.50;;;;;;;-142.06;100.00;64312.41;5050837;28;20189;-80
2023/12/26 08:57:37;;;;;;;4.50;3.53;;;;;;;-142.06;100.00;64312.41;5036431;28;20201;-81
2023/12/26 09:00:04;;;;;;;4.13;3.40;;;;;;;-142.06;100.00;64312.41;5034341;28;20666;-79
2023/12/26 09:02:31;;;;;;;4.77;3.60;;;;;;;-142.06;100.00;64312.41;5048900;28;20248;-79
2023/12/26 09:04:59;;;;;;;3.97;3.10;;;;;;;-142.06;100.00;64312.41;5034524;28;20259;-80
2023/12/26 09:07:26;;;;;;;3.70;3.30;;;;;;;-142.06;100.00;64312.41;5050463;28;20201;-83
2023/12/26 09:09:53;;;;;;;4.77;4.33;;;;;;;-142.06;100.00;64312.41;5045696;28;20197;-81
2023/12/26 09:12:20;;;;;;;4.67;3.87;;;;;;;-142.06;100.00;64312.41;5049920;28;20186;-80
2023/12/26 09:14:47;;;;;;;4.43;3.60;;;;;;;-142.06;100.00;64312.41;5051203;28;20913;-81
2023/12/26 09:17:14;;;;;;;5.17;4.20;;;;;;;-142.06;100.00;64312.41;5047881;28;20312;-80
2023/12/26 09:19:42;;;;;;;4.27;3.87;;;;;;;-142.06;100.00;64312.41;5032908;28;20200;-80
2023/12/26 09:22:09;;;;;;;4.77;3.77;;;;;;;-142.06;100.00;64312.41;5050854;28;20255;-80
2023/12/26 09:24:35;;;;;;;6.50;4.70;;;;;;;-142.06;100.00;64312.41;5031485;28;20220;-80
2023/12/26 09:27:03;;;;;;;5.33;4.83;;;;;;;-142.06;100.00;64312.41;5021349;28;20213;-79
2023/12/26 09:29:30;;;;;;;5.40;4.90;;;;;;;-142.06;100.00;64312.41;5032951;28;20189;-79
2023/12/26 09:31:56;;;;;;;5.63;5.03;;;;;;;-142.06;100.00;64312.41;5031467;28;20194;-80
2023/12/26 09:34:23;;;;;;;5.13;4.63;;;;;;;-142.06;100.00;64312.41;5047394;28;20189;-80
2023/12/26 09:36:50;;;;;;;5.53;4.90;;;;;;;-142.06;100.00;64312.41;5048686;28;20253;-81
2023/12/26 09:39:17;;;;;;;4.10;3.60;;;;;;;-142.06;100.00;64312.41;5048729;28;20209;-80
2023/12/26 09:41:52;;;;;;;4.37;3.90;;;;;;;-142.06;100.00;64312.41;5049926;28;20197;-79
2023/12/26 09:44:20;;;;;;;4.30;3.90;;;;;;;-142.06;100.00;64312.41;5047304;28;20189;-79
2023/12/26 09:46:47;;;;;;;3.17;2.87;;;;;;;-142.06;100.00;64312.41;5032093;28;20185;-80
2023/12/26 09:49:15;;;;;;;2.50;2.30;;;;;;;-142.06;100.00;64312.41;5031252;28;20284;-81
2023/12/26 09:51:45;;;;;;;3.60;2.47;;;;;;;-142.06;100.00;64312.41;5031297;28;20243;-79
2023/12/26 09:54:13;;;;;;;3.73;2.33;;;;;;;-142.06;100.00;64312.41;5048738;28;20193;-79
2023/12/26 09:56:42;;;;;;;2.37;2.03;;;;;;;-142.06;100.00;64312.41;5033039;28;20256;-80
2023/12/26 09:59:10;;;;;;;1.90;1.70;;;;;;;-142.06;100.00;64312.41;5048294;28;20243;-81
2023/12/26 10:01:36;;;;;;;2.20;1.80;;;;;;;-142.06;100.00;64312.41;5033174;28;20200;-80
2023/12/26 10:04:05;;;;;;;1.57;1.00;;;;;;;-142.06;100.00;64312.41;5033194;28;20205;-80
2023/12/26 10:06:32;;;;;;;2.63;0.80;;;;;;;-142.06;100.00;64312.41;5014646;28;20284;-80
2023/12/26 10:09:00;;;;;;;1.07;0.80;;;;;;;-142.06;100.00;64312.41;5047034;28;20197;-79
2023/12/26 10:11:28;;;;;;;1.30;0.73;;;;;;;-142.06;100.00;64312.41;5048440;28;20247;-80
2023/12/26 10:13:55;;;;;;;0.70;0.67;;;;;;;-142.06;100.00;64312.41;5033430;28;20217;-80
2023/12/26 10:16:22;;;;;;;0.70;0.70;;;;;;;-142.06;100.00;64312.41;5046600;28;20213;-80
2023/12/26 10:18:52;;;;;;;1.47;0.97;;;;;;;-142.06;100.00;64312.41;5045798;28;20189;-80
2023/12/26 10:21:19;;;;;;;1.03;0.80;;;;;;;-142.06;100.00;64312.41;5045898;28;20563;-79
2023/12/26 10:23:46;;;;;;;1.20;0.70;;;;;;;-142.06;100.00;64312.41;5048587;28;20192;-80
2023/12/26 10:26:14;;;;;;;0.80;0.70;;;;;;;-142.06;100.00;64312.41;5050741;28;20677;-80
2023/12/26 10:28:41;;;;;;;1.03;0.80;;;;;;;-142.06;100.00;64312.41;5048011;28;20194;-79
2023/12/26 10:31:13;;;;;;;1.63;0.80;;;;;;;-142.06;100.00;64312.41;5050240;28;20225;-81
2023/12/26 10:33:42;;;;;;;0.97;0.70;;;;;;;-142.06;100.00;64312.41;5049248;28;20281;-79
2023/12/26 10:36:10;;;;;;;0.90;0.60;;;;;;;-142.06;100.00;64312.41;5030459;28;20232;-80
2023/12/26 10:38:39;;;;;;;0.87;0.70;;;;;;;-142.06;100.00;64312.41;5046415;28;20205;-79
2023/12/26 10:41:18;;;;;;;2.27;0.90;;;;;;;-142.06;100.00;64312.41;5050146;28;20267;-81
2023/12/26 10:43:45;;;;;;;1.00;0.70;;;;;;;-142.06;100.00;64312.41;5031960;28;20202;-80
2023/12/26 10:46:13;;;;;;;1.10;0.80;;;;;;;-142.06;100.00;64312.41;5031921;28;20225;-79
2023/12/26 10:48:43;;;;;;;2.87;0.70;;;;;;;-142.06;100.00;64312.41;5051184;28;20185;-78
2023/12/26 10:51:10;;;;;;;1.23;0.80;;;;;;;-142.06;100.00;64312.41;5040335;28;20212;-78
2023/12/26 10:53:48;;;;;;;1.43;0.70;;;;;;;-142.06;100.00;64312.41;5049944;28;20193;-80
2023/12/26 10:56:15;;;;;;;0.80;0.50;;;;;;;-142.06;100.00;64312.41;5047446;28;20198;-79
2023/12/26 10:58:42;;;;;;;1.03;0.70;;;;;;;-142.06;100.00;64312.41;5051152;28;20197;-79
2023/12/26 11:01:09;;;;;;;1.07;0.93;;;;;;;-142.06;100.00;64312.41;5032960;28;20785;-82
2023/12/26 13:51:23;;;;;;;1.77;1.10;;;;;;;-142.06;100.00;64312.41;5047982;28;20205;-80
2023/12/26 13:53:50;;;;;;;1.60;0.83;;;;;;;-142.06;100.00;64312.41;5046358;28;20197;-79
2023/12/26 13:56:19;;;;;;;1.70;1.20;;;;;;;-142.06;100.00;64312.41;5027687;28;20240;-80
2023/12/26 13:58:46;;;;;;;1.73;0.80;;;;;;;-142.06;100.00;64312.41;5046289;28;20254;-81